Time,TemperatureF,DewpointF,PressureIn,WindDirection,WindDirectionDegrees,WindSpeedMPH,WindSpeedGustMPH,Humidity,HourlyPrecipIn,Conditions,Clouds,dailyrainin,SolarRadiationWatts/m^2,SoftwareType,DateUTC
2013-02-21 00:01:00,39.2,37.3,30.14,South,180,0.0,1.1,93,0.00,RA,,0.00,0.0,WeatherDisplay:10.37,2013-02-21 08:01:00,
2013-02-21 00:06:00,39.4,37.5,30.14,SSW,202,1.4,2.4,93,0.00,RA,,0.00,0.0,WeatherDisplay:10.37,2013-02-21 08:06:00,
2013-02-21 00:11:00,39.4,37.5,30.14,SSW,202,1.4,2.4,93,0.00,CLR,,0.00,0.0,WeatherDisplay:10.37,2013-02-21 08:11:00,
2013-02-21 00:16:00,39.4,37.5,30.14,SSW,202,1.4,2.4,93,0.00,CLR,,0.00,0.0,WeatherDisplay:10.37,2013-02-21 08:16:00,
2013-02-21 00:21:00,39.4,37.2,30.14,SSW,202,1.4,2.4,92,0.00,CLR,,0.00,0.0,WeatherDisplay:10.37,2013-02-21 08:21:00,
2013-02-21 00:26:00,39.4,37.2,30.14,SSW,202,1.4,2.4,92,0.00,CLR,,0.00,0.0,WeatherDisplay:10.37,2013-02-21 08:26:00,
2013-02-21 00:31:00,39.4,37.2,30.14,WSW,248,0.0,1.4,92,0.00,CLR,,0.00,0.0,WeatherDisplay:10.37,2013-02-21 08:31:00,
2013-02-21 00:36:00,39.4,37.2,30.14,WSW,248,0.0,1.4,92,0.00,CLR,,0.00,0.0,WeatherDisplay:10.37,2013-02-21 08:36:00,
2013-02-21 00:41:00,39.4,37.2,30.14,WSW,248,0.0,1.4,92,0.00,CLR,,0.00,0.0,WeatherDisplay:10.37,2013-02-21 08:41:00,
2013-02-21 00:46:00,39.4,37.2,30.17,SSW,202,0.0,1.1,92,0.00,CLR,,0.00,0.0,WeatherDisplay:10.37,2013-02-21 08:46:00,
2013-02-21 00:51:00,39.4,37.0,30.17,SSW,202,1.1,2.3,91,0.00,CLR,,0.00,0.0,WeatherDisplay:10.37,2013-02-21 08:51:00,
2013-02-21 00:56:00,39.4,37.0,30.17,SSE,158,3.3,3.3,91,0.00,CLR,,0.00,0.0,WeatherDisplay:10.37,2013-02-21 08:56:00,
2013-02-21 01:01:00,39.4,37.0,30.17,SSE,158,3.3,3.3,91,0.00,CLR,,0.00,0.0,WeatherDisplay:10.37,2013-02-21 09:01:00,
2013-02-21 01:06:00,39.4,37.0,30.17,South,180,3.1,5.4,91,0.00,CLR,,0.00,0.0,WeatherDisplay:10.37,2013-02-21 09:06:00,
2013-02-21 01:11:00,39.4,37.0,30.17,SSW,202,1.4,5.8,91,0.00,CLR,,0.00,0.0,WeatherDisplay:10.37,2013-02-21 09:11:00,
2013-02-21 01:16:00,39.4,36.7,30.17,SSW,202,3.3,5.8,90,0.00,CLR,,0.00,0.0,WeatherDisplay:10.37,2013-02-21 09:16:00,
2013-02-21 01:21:00,39.4,36.7,30.17,SSE,158,3.8,3.8,90,0.00,CLR,,0.00,0.0,WeatherDisplay:10.37,2013-02-21 09:21:00,
2013-02-21 01:26:00,39.4,36.7,30.17,SSE,158,1.6,2.3,90,0.00,CLR,,0.00,0.0,WeatherDisplay:10.37,2013-02-21 09:26:00,
2013-02-21 01:31:00,39.4,36.7,30.17,SSE,158,2.2,3.8,90,0.00,CLR,,0.00,0.0,WeatherDisplay:10.37,2013-02-21 09:31:00,
2013-02-21 01:36:00,39.2,36.5,30.17,South,180,2.4,2.4,90,0.00,CLR,,0.00,0.0,WeatherDisplay:10.37,2013-02-21 09:36:00,
2013-02-21 01:41:00,39.2,36.5,30.17,SSE,158,1.6,3.5,90,0.00,CLR,,0.00,0.0,WeatherDisplay:10.37,2013-02-21 09:41:00,
2013-02-21 01:46:00,39.2,36.5,30.17,SSW,202,2.2,3.5,90,0.00,CLR,,0.00,0.0,WeatherDisplay:10.37,2013-02-21 09:46:00,
2013-02-21 01:51:00,39.2,36.8,30.17,SSE,158,2.2,3.5,91,0.00,CLR,,0.00,0.0,WeatherDisplay:10.37,2013-02-21 09:51:00,
2013-02-21 01:56:00,39.2,36.8,30.17,SSE,158,2.0,2.6,91,0.00,CLR,,0.00,0.0,WeatherDisplay:10.37,2013-02-21 09:56:00,
2013-02-21 02:01:00,39.2,36.8,30.20,SSE,158,2.2,2.6,91,0.00,CLR,,0.00,0.0,WeatherDisplay:10.37,2013-02-21 10:01:00,
2013-02-21 02:06:00,39.2,36.8,30.20,SSE,158,2.0,2.0,91,0.00,CLR,,0.00,0.0,WeatherDisplay:10.37,2013-02-21 10:06:00,
2013-02-21 02:11:00,39.2,36.8,30.20,SSW,202,2.6,3.3,91,0.00,CLR,,0.00,0.0,WeatherDisplay:10.37,2013-02-21 10:11:00,
2013-02-21 02:16:00,39.2,36.8,30.20,SSW,202,2.2,2.9,91,0.00,CLR,,0.00,0.0,WeatherDisplay:10.37,2013-02-21 10:16:00,
2013-02-21 02:21:00,39.2,36.8,30.20,SSW,202,2.4,3.5,91,0.00,CLR,,0.00,0.0,WeatherDisplay:10.37,2013-02-21 10:21:00,
2013-02-21 02:26:00,39.2,36.8,30.20,SSW,202,1.6,2.3,91,0.00,CLR,,0.00,0.0,WeatherDisplay:10.37,2013-02-21 10:26:00,
2013-02-21 02:31:00,39.2,36.8,30.20,SSE,158,1.4,2.3,91,0.00,CLR,,0.00,0.0,WeatherDisplay:10.37,2013-02-21 10:31:00,
2013-02-21 02:36:00,39.0,36.6,30.20,SSW,202,1.6,2.6,91,0.00,CLR,,0.00,0.0,WeatherDisplay:10.37,2013-02-21 10:36:00,
2013-02-21 02:41:00,38.8,36.4,30.20,SSW,202,2.0,2.4,91,0.00,CLR,,0.00,0.0,WeatherDisplay:10.37,2013-02-21 10:41:00,
2013-02-21 02:46:00,38.7,36.3,30.17,SSW,202,0.0,1.1,91,0.00,CLR,,0.00,0.0,WeatherDisplay:10.37,2013-02-21 10:46:00,
2013-02-21 02:51:00,38.5,36.1,30.17,SSW,202,0.0,0.0,91,0.00,CLR,,0.00,0.0,WeatherDisplay:10.37,2013-02-21 10:51:00,
2013-02-21 02:56:00,38.3,35.6,30.17,SSE,158,0.0,0.0,90,0.00,CLR,,0.00,0.0,WeatherDisplay:10.37,2013-02-21 10:56:00,
2013-02-21 03:01:00,37.9,35.3,30.20,SSE,158,0.0,0.0,90,0.00,CLR,,0.00,0.0,WeatherDisplay:10.37,2013-02-21 11:01:00,
2013-02-21 03:06:00,37.8,35.1,30.20,SSE,158,0.0,0.0,90,0.00,CLR,,0.00,0.0,WeatherDisplay:10.37,2013-02-21 11:06:00,
2013-02-21 03:11:00,37.2,34.6,30.20,SSE,158,0.0,0.0,90,0.00,CLR,,0.00,0.0,WeatherDisplay:10.37,2013-02-21 11:11:00,
2013-02-21 03:16:00,37.0,34.4,30.20,SSE,158,0.0,0.0,90,0.00,CLR,,0.00,0.0,WeatherDisplay:10.37,2013-02-21 11:16:00,
2013-02-21 03:21:00,36.7,34.0,30.20,SSE,158,0.0,0.0,90,0.00,CLR,,0.00,0.0,WeatherDisplay:10.37,2013-02-21 11:21:00,
2013-02-21 03:26:00,36.3,33.7,30.20,SSE,158,0.0,0.0,90,0.00,CLR,,0.00,0.0,WeatherDisplay:10.37,2013-02-21 11:26:00,
2013-02-21 03:31:00,36.1,33.5,30.20,SSE,158,0.0,0.0,90,0.00,CLR,,0.00,0.0,WeatherDisplay:10.37,2013-02-21 11:31:00,
2013-02-21 03:36:00,36.0,33.6,30.20,SSE,158,0.0,0.0,91,0.00,CLR,,0.00,0.0,WeatherDisplay:10.37,2013-02-21 11:36:00,
2013-02-21 03:41:00,35.8,33.4,30.20,SSE,158,0.0,0.0,91,0.00,CLR,,0.00,0.0,WeatherDisplay:10.37,2013-02-21 11:41:00,
2013-02-21 03:46:00,35.8,33.4,30.20,SSE,158,0.0,0.0,91,0.00,CLR,,0.00,0.0,WeatherDisplay:10.37,2013-02-21 11:46:00,
2013-02-21 03:51:00,35.8,33.7,30.20,South,180,0.0,2.3,92,0.00,CLR,,0.00,0.0,WeatherDisplay:10.37,2013-02-21 11:51:00,
2013-02-21 03:56:00,35.8,34.0,30.20,SSE,158,0.9,2.3,93,0.00,CLR,,0.00,0.0,WeatherDisplay:10.37,2013-02-21 11:56:00,
2013-02-21 04:01:00,35.8,34.0,30.20,SSE,158,0.9,2.3,93,0.00,CLR,,0.00,0.0,WeatherDisplay:10.37,2013-02-21 12:01:00,
2013-02-21 04:06:00,35.8,34.0,30.20,SSE,158,0.9,2.3,93,0.00,CLR,,0.00,0.0,WeatherDisplay:10.37,2013-02-21 12:06:00,
2013-02-21 04:11:00,35.6,33.8,30.20,SSE,158,0.9,2.3,93,0.00,CLR,,0.00,0.0,WeatherDisplay:10.37,2013-02-21 12:11:00,
2013-02-21 04:16:00,35.6,33.8,30.20,SSE,158,0.9,2.3,93,0.00,CLR,,0.00,0.0,WeatherDisplay:10.37,2013-02-21 12:16:00,
2013-02-21 04:21:00,35.4,33.6,30.20,SSE,158,0.9,2.3,93,0.00,CLR,,0.00,0.0,WeatherDisplay:10.37,2013-02-21 12:21:00,
2013-02-21 04:26:00,35.4,33.9,30.20,SSE,158,0.9,2.3,94,0.00,CLR,,0.00,0.0,WeatherDisplay:10.37,2013-02-21 12:26:00,
2013-02-21 04:31:00,35.6,34.0,30.20,SSE,158,0.9,2.3,94,0.00,CLR,,0.00,0.0,WeatherDisplay:10.37,2013-02-21 12:31:00,
2013-02-21 04:36:00,35.4,34.1,30.20,SSE,158,0.9,2.3,95,0.00,CLR,,0.00,0.0,WeatherDisplay:10.37,2013-02-21 12:36:00,
2013-02-21 04:41:00,35.4,34.1,30.20,SSE,158,0.9,2.3,95,0.00,CLR,,0.00,0.0,WeatherDisplay:10.37,2013-02-21 12:41:00,
2013-02-21 04:46:00,35.2,34.0,30.20,SSE,158,0.9,2.3,95,0.00,CLR,,0.00,0.0,WeatherDisplay:10.37,2013-02-21 12:46:00,
2013-02-21 04:51:00,34.9,33.3,30.20,SSE,158,0.9,2.3,94,0.00,CLR,,0.00,0.0,WeatherDisplay:10.37,2013-02-21 12:51:00,
2013-02-21 04:56:00,34.9,33.3,30.20,SSE,158,0.9,2.3,94,0.00,CLR,,0.00,0.0,WeatherDisplay:10.37,2013-02-21 12:56:00,
2013-02-21 05:01:00,34.9,33.6,30.20,SSW,202,0.9,1.6,95,0.00,CLR,,0.00,0.0,WeatherDisplay:10.37,2013-02-21 13:01:00,
2013-02-21 05:06:00,34.9,33.9,30.20,SSW,202,0.9,1.6,96,0.00,CLR,,0.00,0.0,WeatherDisplay:10.37,2013-02-21 13:06:00,
2013-02-21 05:11:00,34.9,33.6,30.20,SSE,158,0.0,0.0,95,0.00,CLR,,0.00,0.0,WeatherDisplay:10.37,2013-02-21 13:11:00,
2013-02-21 05:16:00,34.7,33.4,30.20,SSE,158,0.0,0.0,95,0.00,CLR,,0.00,0.0,WeatherDisplay:10.37,2013-02-21 13:16:00,
2013-02-21 05:21:00,34.5,33.2,30.20,SSE,158,0.0,0.0,95,0.00,CLR,,0.00,0.0,WeatherDisplay:10.37,2013-02-21 13:21:00,
2013-02-21 05:26:00,34.3,33.1,30.20,SSE,158,0.0,0.0,95,0.00,CLR,,0.00,0.0,WeatherDisplay:10.37,2013-02-21 13:26:00,
2013-02-21 05:31:00,34.3,33.1,30.20,SSW,202,0.0,0.0,95,0.00,CLR,,0.00,0.0,WeatherDisplay:10.37,2013-02-21 13:31:00,
2013-02-21 05:36:00,34.5,33.5,30.20,SSW,202,0.0,0.0,96,0.00,CLR,,0.00,0.0,WeatherDisplay:10.37,2013-02-21 13:36:00,
2013-02-21 05:41:00,34.5,33.5,30.20,SSW,202,0.0,0.0,96,0.00,CLR,,0.00,0.0,WeatherDisplay:10.37,2013-02-21 13:41:00,
2013-02-21 05:46:00,34.5,33.5,30.20,SSW,202,0.0,0.0,96,0.00,CLR,,0.00,0.0,WeatherDisplay:10.37,2013-02-21 13:46:00,
2013-02-21 05:51:00,34.7,33.7,30.20,SSW,202,0.0,0.0,96,0.00,CLR,,0.00,0.0,WeatherDisplay:10.37,2013-02-21 13:51:00,
2013-02-21 05:56:00,34.7,33.7,30.20,South,180,0.0,0.0,96,0.00,CLR,,0.00,0.0,WeatherDisplay:10.37,2013-02-21 13:56:00,
2013-02-21 06:01:00,34.9,33.9,30.23,SSW,202,0.0,0.0,96,0.00,CLR,,0.00,0.0,WeatherDisplay:10.37,2013-02-21 14:01:00,
2013-02-21 06:06:00,35.1,34.0,30.23,SSW,202,0.0,0.0,96,0.00,CLR,,0.00,0.0,WeatherDisplay:10.37,2013-02-21 14:06:00,
2013-02-21 06:11:00,35.2,35.2,30.23,SSW,202,0.0,0.0,100,0.00,,,0.00,0.0,WeatherDisplay:10.37,2013-02-21 14:11:00,
2013-02-21 06:16:00,35.4,35.4,30.20,SSW,202,0.0,0.0,100,0.00,,,0.00,0.0,WeatherDisplay:10.37,2013-02-21 14:16:00,
2013-02-21 06:21:00,35.6,34.6,30.20,WSW,248,0.0,0.0,96,0.00,,,0.00,0.0,WeatherDisplay:10.37,2013-02-21 14:21:00,
2013-02-21 06:26:00,35.8,34.8,30.20,WSW,248,0.0,0.0,96,0.00,CLR,,0.00,0.0,WeatherDisplay:10.37,2013-02-21 14:26:00,
2013-02-21 06:31:00,35.8,34.8,30.20,WSW,248,0.0,0.0,96,0.00,CLR,,0.00,0.0,WeatherDisplay:10.37,2013-02-21 14:31:00,
2013-02-21 06:36:00,35.8,34.8,30.20,WSW,248,0.0,0.0,96,0.00,CLR,,0.00,0.0,WeatherDisplay:10.37,2013-02-21 14:36:00,
2013-02-21 06:41:00,35.8,34.8,30.20,WSW,248,0.0,0.0,96,0.00,CLR,,0.00,0.0,WeatherDisplay:10.37,2013-02-21 14:41:00,
2013-02-21 06:46:00,36.1,36.1,30.23,South,180,0.9,1.1,100,0.00,,,0.00,0.0,WeatherDisplay:10.37,2013-02-21 14:46:00,
2013-02-21 06:51:00,36.1,36.1,30.23,South,180,0.9,1.1,100,0.00,,,0.00,0.0,WeatherDisplay:10.37,2013-02-21 14:51:00,
2013-02-21 06:56:00,36.3,36.3,30.23,South,180,0.9,1.1,100,0.00,,,0.00,0.0,WeatherDisplay:10.37,2013-02-21 14:56:00,
2013-02-21 07:01:00,36.3,36.3,30.20,SSE,158,0.0,0.0,100,0.00,,,0.00,0.0,WeatherDisplay:10.37,2013-02-21 15:01:00,
2013-02-21 07:06:00,36.5,36.5,30.20,ENE,68,0.0,0.0,100,0.00,,,0.00,0.0,WeatherDisplay:10.37,2013-02-21 15:06:00,
2013-02-21 07:11:00,36.7,36.7,30.20,ENE,68,0.0,0.0,100,0.00,,,0.00,0.0,WeatherDisplay:10.37,2013-02-21 15:11:00,
2013-02-21 07:16:00,36.9,36.9,30.23,SSW,202,1.4,0.0,100,0.00,,,0.00,0.0,WeatherDisplay:10.37,2013-02-21 15:16:00,
2013-02-21 07:21:00,36.9,36.9,30.23,SSW,202,1.6,1.6,100,0.00,,,0.00,0.0,WeatherDisplay:10.37,2013-02-21 15:21:00,
2013-02-21 07:26:00,37.0,37.0,30.23,SSW,202,1.6,1.6,100,0.00,,,0.00,0.0,WeatherDisplay:10.37,2013-02-21 15:26:00,
2013-02-21 07:31:00,37.0,37.0,30.26,SSW,202,1.6,1.6,100,0.00,,,0.00,0.0,WeatherDisplay:10.37,2013-02-21 15:31:00,
2013-02-21 07:36:00,37.0,37.0,30.26,SSW,202,1.6,1.6,100,0.00,,,0.00,0.0,WeatherDisplay:10.37,2013-02-21 15:36:00,
2013-02-21 07:41:00,37.2,37.2,30.26,SSW,202,1.6,1.6,100,0.00,,,0.00,0.0,WeatherDisplay:10.37,2013-02-21 15:41:00,
2013-02-21 07:46:00,37.4,37.4,30.26,SSW,202,1.6,1.6,100,0.00,,,0.00,0.0,WeatherDisplay:10.37,2013-02-21 15:46:00,
2013-02-21 07:51:00,37.8,37.8,30.26,SSW,202,1.6,1.6,100,0.00,,,0.00,0.0,WeatherDisplay:10.37,2013-02-21 15:51:00,
2013-02-21 07:56:00,37.9,37.9,30.26,SSE,158,0.9,1.1,100,0.00,,,0.00,0.0,WeatherDisplay:10.37,2013-02-21 15:56:00,
2013-02-21 08:01:00,38.1,38.1,30.26,SSE,158,0.9,1.1,100,0.00,,,0.00,0.0,WeatherDisplay:10.37,2013-02-21 16:01:00,
2013-02-21 08:06:00,38.3,38.3,30.26,SSE,158,0.0,0.0,100,0.00,,,0.00,0.0,WeatherDisplay:10.37,2013-02-21 16:06:00,
2013-02-21 08:11:00,38.5,38.5,30.26,SSE,158,0.0,0.0,100,0.00,,,0.00,0.0,WeatherDisplay:10.37,2013-02-21 16:11:00,
2013-02-21 08:16:00,38.7,38.7,30.26,SSE,158,0.0,0.0,100,0.00,,,0.00,0.0,WeatherDisplay:10.37,2013-02-21 16:16:00,
2013-02-21 08:21:00,38.8,37.8,30.26,SSE,158,0.0,1.1,96,0.00,CLR,,0.00,0.0,WeatherDisplay:10.37,2013-02-21 16:21:00,
2013-02-21 08:26:00,39.0,38.0,30.26,SSE,158,1.6,2.3,96,0.00,CLR,,0.00,0.0,WeatherDisplay:10.37,2013-02-21 16:26:00,
2013-02-21 08:31:00,39.2,38.2,30.26,SE,135,1.4,2.4,96,0.00,CLR,,0.00,0.0,WeatherDisplay:10.37,2013-02-21 16:31:00,
2013-02-21 08:36:00,39.4,38.1,30.26,SSE,158,2.4,3.5,95,0.00,CLR,,0.00,0.0,WeatherDisplay:10.37,2013-02-21 16:36:00,
2013-02-21 08:41:00,39.7,38.2,30.26,SE,135,2.0,2.4,94,0.00,CLR,,0.00,0.0,WeatherDisplay:10.37,2013-02-21 16:41:00,
2013-02-21 08:46:00,40.1,38.2,30.26,SSW,202,2.0,3.5,93,0.00,CLR,,0.00,0.0,WeatherDisplay:10.37,2013-02-21 16:46:00,
2013-02-21 08:51:00,40.3,38.4,30.26,South,180,2.0,2.6,93,0.00,CLR,,0.00,0.0,WeatherDisplay:10.37,2013-02-21 16:51:00,
2013-02-21 08:56:00,40.5,38.0,30.26,SSW,202,2.4,2.6,91,0.00,CLR,,0.00,0.0,WeatherDisplay:10.37,2013-02-21 16:56:00,
2013-02-21 09:01:00,40.8,38.4,30.26,SE,135,1.4,2.3,91,0.00,CLR,,0.00,0.0,WeatherDisplay:10.37,2013-02-21 17:01:00,
2013-02-21 09:06:00,41.2,38.5,30.26,South,180,1.1,2.9,90,0.00,CLR,,0.00,0.0,WeatherDisplay:10.37,2013-02-21 17:06:00,
2013-02-21 09:11:00,41.5,38.3,30.26,SE,135,2.0,3.1,88,0.00,CLR,,0.00,0.0,WeatherDisplay:10.37,2013-02-21 17:11:00,
2013-02-21 09:16:00,41.9,38.0,30.26,SSE,158,3.8,4.6,86,0.00,CLR,,0.00,0.0,WeatherDisplay:10.37,2013-02-21 17:16:00,
2013-02-21 09:21:00,42.4,38.2,30.26,SSE,158,3.6,3.8,85,0.00,CLR,,0.00,0.0,WeatherDisplay:10.37,2013-02-21 17:21:00,
2013-02-21 09:27:00,43.0,37.5,30.26,SSE,158,3.6,4.6,81,0.00,CLR,,0.00,0.0,WeatherDisplay:10.37,2013-02-21 17:27:00,
2013-02-21 09:32:00,43.3,37.3,30.26,SSW,202,4.3,4.3,79,0.00,CLR,,0.00,0.0,WeatherDisplay:10.37,2013-02-21 17:32:00,
2013-02-21 09:37:00,43.5,36.8,30.26,SSE,158,5.6,7.4,77,0.00,CLR,,0.00,0.0,WeatherDisplay:10.37,2013-02-21 17:37:00,
2013-02-21 09:42:00,44.1,37.6,30.26,SSW,202,2.6,4.6,78,0.00,CLR,,0.00,0.0,WeatherDisplay:10.37,2013-02-21 17:42:00,
2013-02-21 09:47:00,44.2,36.8,30.26,SSW,202,3.1,3.1,75,0.00,CLR,,0.00,0.0,WeatherDisplay:10.37,2013-02-21 17:47:00,
2013-02-21 09:52:00,44.2,37.2,30.26,South,180,4.0,6.0,76,0.00,CLR,,0.00,0.0,WeatherDisplay:10.37,2013-02-21 17:52:00,
2013-02-21 09:57:00,44.2,36.8,30.26,SSW,202,4.0,5.8,75,0.00,CLR,,0.00,0.0,WeatherDisplay:10.37,2013-02-21 17:57:00,
2013-02-21 10:02:00,44.2,36.8,30.26,SSE,158,4.3,5.8,75,0.00,CLR,,0.00,0.0,WeatherDisplay:10.37,2013-02-21 18:02:00,
2013-02-21 10:07:00,44.2,36.5,30.26,SSE,158,5.4,8.1,74,0.00,CLR,,0.00,0.0,WeatherDisplay:10.37,2013-02-21 18:07:00,
2013-02-21 10:12:00,44.2,36.5,30.26,SE,135,4.5,5.8,74,0.00,CLR,,0.00,0.0,WeatherDisplay:10.37,2013-02-21 18:12:00,
2013-02-21 10:17:00,44.4,36.6,30.26,SSW,202,3.8,7.1,74,0.00,CLR,,0.00,0.0,WeatherDisplay:10.37,2013-02-21 18:17:00,
2013-02-21 10:22:00,44.4,36.3,30.26,SE,135,6.2,9.7,73,0.00,CLR,,0.00,0.0,WeatherDisplay:10.37,2013-02-21 18:22:00,
2013-02-21 10:27:00,44.6,36.5,30.26,SSW,202,4.3,4.9,73,0.00,CLR,,0.00,0.0,WeatherDisplay:10.37,2013-02-21 18:27:00,
2013-02-21 10:32:00,44.8,36.7,30.26,WSW,248,4.9,8.1,73,0.00,CLR,,0.00,0.0,WeatherDisplay:10.37,2013-02-21 18:32:00,
2013-02-21 10:37:00,44.8,36.7,30.26,SSW,202,4.3,5.9,73,0.00,CLR,,0.00,0.0,WeatherDisplay:10.37,2013-02-21 18:37:00,
2013-02-21 10:42:00,45.0,36.5,30.26,SSW,202,5.4,8.1,72,0.00,CLR,,0.00,0.0,WeatherDisplay:10.37,2013-02-21 18:42:00,
2013-02-21 10:47:00,44.8,35.9,30.26,SSE,158,6.0,8.5,71,0.00,CLR,,0.00,0.0,WeatherDisplay:10.37,2013-02-21 18:47:00,
2013-02-21 10:52:00,44.8,35.6,30.26,WSW,248,5.4,5.4,70,0.00,CLR,,0.00,0.0,WeatherDisplay:10.37,2013-02-21 18:52:00,
2013-02-21 10:57:00,45.1,36.3,30.26,SSW,202,3.8,5.6,71,0.00,CLR,,0.00,0.0,WeatherDisplay:10.37,2013-02-21 18:57:00,
2013-02-21 11:02:00,45.3,36.5,30.26,SSW,202,4.3,9.2,71,0.00,CLR,,0.00,0.0,WeatherDisplay:10.37,2013-02-21 19:02:00,
2013-02-21 11:07:00,45.3,36.5,30.26,SSW,202,5.6,8.1,71,0.00,CLR,,0.00,0.0,WeatherDisplay:10.37,2013-02-21 19:07:00,
2013-02-21 11:12:00,45.3,36.1,30.26,SSE,158,3.8,5.9,70,0.00,CLR,,0.00,0.0,WeatherDisplay:10.37,2013-02-21 19:12:00,
2013-02-21 11:17:00,45.3,36.1,30.26,SSW,202,4.9,6.4,70,0.00,CLR,,0.00,0.0,WeatherDisplay:10.37,2013-02-21 19:17:00,
2013-02-21 11:22:00,45.3,36.1,30.26,SSE,158,4.3,5.8,70,0.00,CLR,,0.00,0.0,WeatherDisplay:10.37,2013-02-21 19:22:00,
2013-02-21 11:27:00,45.3,36.1,30.26,South,180,4.9,6.2,70,0.00,CLR,,0.00,0.0,WeatherDisplay:10.37,2013-02-21 19:27:00,
2013-02-21 11:32:00,45.9,37.0,30.26,SSE,158,3.3,4.6,71,0.00,CLR,,0.00,0.0,WeatherDisplay:10.37,2013-02-21 19:32:00,
2013-02-21 11:37:00,46.0,37.2,30.26,SSW,202,3.3,3.6,71,0.00,CLR,,0.00,0.0,WeatherDisplay:10.37,2013-02-21 19:37:00,
2013-02-21 11:42:00,46.0,36.8,30.26,SSW,202,4.7,8.1,70,0.00,CLR,,0.00,0.0,WeatherDisplay:10.37,2013-02-21 19:42:00,
2013-02-21 11:47:00,45.9,37.0,30.29,SSE,158,5.4,6.0,71,0.00,CLR,,0.00,0.0,WeatherDisplay:10.37,2013-02-21 19:47:00,
2013-02-21 11:52:00,45.9,38.0,30.29,SSW,202,3.6,5.8,74,0.00,CLR,,0.00,0.0,WeatherDisplay:10.37,2013-02-21 19:52:00,
2013-02-21 11:57:00,45.9,38.0,30.29,SSW,202,6.2,8.5,74,0.00,CLR,,0.00,0.0,WeatherDisplay:10.37,2013-02-21 19:57:00,
2013-02-21 12:02:00,45.3,37.5,30.26,SSW,202,7.6,9.8,74,0.00,CLR,,0.00,0.0,WeatherDisplay:10.37,2013-02-21 20:02:00,
2013-02-21 12:07:00,45.1,38.0,30.26,South,180,3.3,9.2,76,0.00,CLR,,0.00,0.0,WeatherDisplay:10.37,2013-02-21 20:07:00,
2013-02-21 12:12:00,44.8,37.7,30.26,South,180,3.3,3.3,76,0.00,CLR,,0.00,0.0,WeatherDisplay:10.37,2013-02-21 20:12:00,
2013-02-21 12:17:00,44.2,37.2,30.26,SSW,202,6.9,7.1,76,0.00,CLR,,0.00,0.0,WeatherDisplay:10.37,2013-02-21 20:17:00,
2013-02-21 12:22:00,44.1,37.3,30.26,SSW,202,6.9,7.1,77,0.00,CLR,,0.00,0.0,WeatherDisplay:10.37,2013-02-21 20:22:00,
2013-02-21 12:27:00,44.1,38.0,30.26,South,180,2.9,3.8,79,0.00,CLR,,0.00,0.0,WeatherDisplay:10.37,2013-02-21 20:27:00,
2013-02-21 12:32:00,44.1,38.3,30.26,SSE,158,4.0,5.8,80,0.00,CLR,,0.00,0.0,WeatherDisplay:10.37,2013-02-21 20:32:00,
2013-02-21 12:37:00,43.9,38.4,30.26,SSE,158,4.0,5.8,81,0.00,CLR,,0.00,0.0,WeatherDisplay:10.37,2013-02-21 20:37:00,
2013-02-21 12:42:00,44.1,38.0,30.26,SSE,158,5.6,6.0,79,0.00,CLR,,0.00,0.0,WeatherDisplay:10.37,2013-02-21 20:42:00,
2013-02-21 12:47:00,44.2,38.5,30.26,South,180,4.7,4.7,80,0.00,CLR,,0.00,0.0,WeatherDisplay:10.37,2013-02-21 20:47:00,
2013-02-21 12:52:00,44.2,38.8,30.26,SSW,202,3.6,4.7,81,0.00,CLR,,0.00,0.0,WeatherDisplay:10.37,2013-02-21 20:52:00,
2013-02-21 12:57:00,44.1,38.6,30.26,SSW,202,3.6,4.7,81,0.00,CLR,,0.00,0.0,WeatherDisplay:10.37,2013-02-21 20:57:00,
2013-02-21 13:02:00,44.1,38.6,30.23,SE,135,3.6,4.6,81,0.00,CLR,,0.00,0.0,WeatherDisplay:10.37,2013-02-21 21:02:00,
2013-02-21 13:07:00,44.1,38.0,30.23,SSE,158,4.7,7.8,79,0.00,CLR,,0.00,0.0,WeatherDisplay:10.37,2013-02-21 21:07:00,
2013-02-21 13:12:00,44.1,37.6,30.23,SSW,202,2.6,2.6,78,0.00,CLR,,0.00,0.0,WeatherDisplay:10.37,2013-02-21 21:12:00,
2013-02-21 13:17:00,44.1,37.3,30.23,SSE,158,3.1,3.1,77,0.00,CLR,,0.00,0.0,WeatherDisplay:10.37,2013-02-21 21:17:00,
2013-02-21 13:22:00,44.2,37.5,30.23,SSE,158,4.0,6.9,77,0.00,CLR,,0.00,0.0,WeatherDisplay:10.37,2013-02-21 21:22:00,
2013-02-21 13:27:00,44.2,37.2,30.23,SSE,158,5.6,5.6,76,0.00,CLR,,0.00,0.0,WeatherDisplay:10.37,2013-02-21 21:27:00,
2013-02-21 13:32:00,44.2,37.2,30.20,SE,135,4.0,6.0,76,0.00,CLR,,0.00,0.0,WeatherDisplay:10.37,2013-02-21 21:32:00,
2013-02-21 13:37:00,44.6,37.2,30.20,SSE,158,3.3,6.9,75,0.00,CLR,,0.00,0.0,WeatherDisplay:10.37,2013-02-21 21:37:00,
2013-02-21 13:42:00,44.8,37.0,30.20,SSW,202,4.0,6.0,74,0.00,CLR,,0.00,0.0,WeatherDisplay:10.37,2013-02-21 21:42:00,
2013-02-21 13:47:00,44.8,37.0,30.20,SSE,158,2.4,3.8,74,0.00,CLR,,0.00,0.0,WeatherDisplay:10.37,2013-02-21 21:47:00,
2013-02-21 13:52:00,45.0,37.2,30.20,SE,135,3.3,4.6,74,0.00,CLR,,0.00,0.0,WeatherDisplay:10.37,2013-02-21 21:52:00,
2013-02-21 13:57:00,45.0,36.8,30.20,SSW,202,3.6,7.8,73,0.00,CLR,,0.00,0.0,WeatherDisplay:10.37,2013-02-21 21:57:00,
2013-02-21 14:02:00,45.1,37.3,30.20,SSW,202,3.8,4.6,74,0.00,CLR,,0.00,0.0,WeatherDisplay:10.37,2013-02-21 22:02:00,
2013-02-21 14:07:00,45.3,37.9,30.20,SSE,158,2.0,2.3,75,0.00,CLR,,0.00,0.0,WeatherDisplay:10.37,2013-02-21 22:07:00,
2013-02-21 14:12:00,45.3,37.9,30.20,South,180,3.3,3.8,75,0.00,CLR,,0.00,0.0,WeatherDisplay:10.37,2013-02-21 22:12:00,
2013-02-21 14:17:00,45.3,37.9,30.20,SSE,158,2.9,5.8,75,0.00,CLR,,0.00,0.0,WeatherDisplay:10.37,2013-02-21 22:17:00,
2013-02-21 14:22:00,45.3,37.9,30.20,SSE,158,3.1,8.1,75,0.04,RA,,0.04,0.0,WeatherDisplay:10.37,2013-02-21 22:22:00,
2013-02-21 14:27:00,45.3,37.5,30.20,South,180,4.7,5.8,74,0.04,RA,,0.04,0.0,WeatherDisplay:10.37,2013-02-21 22:27:00,
2013-02-21 14:32:00,45.3,37.9,30.20,SSE,158,4.7,4.7,75,0.04,CLR,,0.04,0.0,WeatherDisplay:10.37,2013-02-21 22:32:00,
2013-02-21 14:37:00,45.3,37.9,30.20,SSE,158,4.7,8.1,75,0.04,CLR,,0.04,0.0,WeatherDisplay:10.37,2013-02-21 22:37:00,
2013-02-21 14:42:00,45.3,37.9,30.20,SSE,158,3.1,3.8,75,0.04,CLR,,0.04,0.0,WeatherDisplay:10.37,2013-02-21 22:42:00,
2013-02-21 14:47:00,45.3,37.9,30.20,SSE,158,2.9,3.6,75,0.04,CLR,,0.04,0.0,WeatherDisplay:10.37,2013-02-21 22:47:00,
2013-02-21 14:52:00,45.3,38.2,30.20,SSW,202,3.6,5.8,76,0.04,CLR,,0.04,0.0,WeatherDisplay:10.37,2013-02-21 22:52:00,
2013-02-21 14:57:00,45.3,38.2,30.20,South,180,5.6,7.6,76,0.04,CLR,,0.04,0.0,WeatherDisplay:10.37,2013-02-21 22:57:00,
2013-02-21 15:02:00,45.3,38.2,30.20,SSW,202,2.9,4.6,76,0.04,CLR,,0.04,0.0,WeatherDisplay:10.37,2013-02-21 23:02:00,
2013-02-21 15:07:00,45.3,37.5,30.20,SW,225,4.9,5.8,74,0.04,CLR,,0.04,0.0,WeatherDisplay:10.37,2013-02-21 23:07:00,
2013-02-21 15:12:00,45.5,37.3,30.20,SSW,202,3.6,5.8,73,0.04,CLR,,0.04,0.0,WeatherDisplay:10.37,2013-02-21 23:12:00,
2013-02-21 15:17:00,45.7,37.5,30.20,South,180,5.4,8.1,73,0.04,CLR,,0.04,0.0,WeatherDisplay:10.37,2013-02-21 23:17:00,
2013-02-21 15:22:00,45.7,37.2,30.20,WNW,292,3.1,4.9,72,0.00,CLR,,0.04,0.0,WeatherDisplay:10.37,2013-02-21 23:22:00,
2013-02-21 15:27:00,45.9,36.6,30.20,SW,225,3.6,4.6,70,0.00,CLR,,0.04,0.0,WeatherDisplay:10.37,2013-02-21 23:27:00,
2013-02-21 15:32:00,45.9,35.9,30.20,South,180,5.4,5.4,68,0.00,CLR,,0.04,0.0,WeatherDisplay:10.37,2013-02-21 23:32:00,
2013-02-21 15:37:00,45.9,35.9,30.20,SSW,202,5.9,8.5,68,0.00,CLR,,0.04,0.0,WeatherDisplay:10.37,2013-02-21 23:37:00,
2013-02-21 15:42:00,45.9,35.9,30.20,SSE,158,5.4,8.1,68,0.00,CLR,,0.04,0.0,WeatherDisplay:10.37,2013-02-21 23:42:00,
2013-02-21 15:47:00,46.0,36.4,30.20,SSW,202,5.4,8.1,69,0.00,CLR,,0.04,0.0,WeatherDisplay:10.37,2013-02-21 23:47:00,
2013-02-21 15:52:00,45.9,36.6,30.20,SSW,202,5.4,10.5,70,0.00,CLR,,0.04,0.0,WeatherDisplay:10.37,2013-02-21 23:52:00,
2013-02-21 15:57:00,45.5,37.3,30.20,SSE,158,3.3,5.4,73,0.00,CLR,,0.04,0.0,WeatherDisplay:10.37,2013-02-21 23:57:00,
2013-02-21 16:02:00,45.3,37.5,30.20,South,180,4.5,6.2,74,0.00,CLR,,0.04,0.0,WeatherDisplay:10.37,2013-02-22 00:02:00,
2013-02-21 16:07:00,45.3,37.5,30.20,South,180,6.2,6.2,74,0.00,CLR,,0.04,0.0,WeatherDisplay:10.37,2013-02-22 00:07:00,
2013-02-21 16:12:00,45.3,37.5,30.20,South,180,6.0,8.1,74,0.00,CLR,,0.04,0.0,WeatherDisplay:10.37,2013-02-22 00:12:00,
2013-02-21 16:17:00,45.3,37.9,30.20,SSW,202,4.3,9.8,75,0.00,CLR,,0.04,0.0,WeatherDisplay:10.37,2013-02-22 00:17:00,
2013-02-21 16:22:00,45.3,38.2,30.20,SSE,158,3.8,4.7,76,0.00,CLR,,0.04,0.0,WeatherDisplay:10.37,2013-02-22 00:22:00,
2013-02-21 16:27:00,45.3,38.2,30.20,South,180,4.7,5.9,76,0.00,CLR,,0.04,0.0,WeatherDisplay:10.37,2013-02-22 00:27:00,
2013-02-21 16:32:00,45.1,38.0,30.20,South,180,5.4,5.4,76,0.00,CLR,,0.04,0.0,WeatherDisplay:10.37,2013-02-22 00:32:00,
2013-02-21 16:37:00,45.0,38.2,30.20,SSE,158,4.0,4.0,77,0.00,CLR,,0.04,0.0,WeatherDisplay:10.37,2013-02-22 00:37:00,
2013-02-21 16:42:00,44.8,38.3,30.20,South,180,3.8,4.7,78,0.00,CLR,,0.04,0.0,WeatherDisplay:10.37,2013-02-22 00:42:00,
2013-02-21 16:47:00,44.6,37.8,30.20,South,180,4.5,6.0,77,0.00,CLR,,0.04,0.0,WeatherDisplay:10.37,2013-02-22 00:47:00,
2013-02-21 16:52:00,44.4,38.3,30.20,South,180,4.5,6.0,79,0.00,CLR,,0.04,0.0,WeatherDisplay:10.37,2013-02-22 00:52:00,
2013-02-21 16:57:00,44.2,38.5,30.20,SSE,158,4.3,4.6,80,0.00,CLR,,0.04,0.0,WeatherDisplay:10.37,2013-02-22 00:57:00,
2013-02-21 17:02:00,44.1,38.0,30.23,SSE,158,4.5,4.7,79,0.00,CLR,,0.04,0.0,WeatherDisplay:10.37,2013-02-22 01:02:00,
2013-02-21 17:07:00,44.1,38.0,30.23,SSE,158,4.5,4.7,79,0.00,CLR,,0.04,0.0,WeatherDisplay:10.37,2013-02-22 01:07:00,
2013-02-21 17:12:00,43.9,38.1,30.23,South,180,2.9,4.9,80,0.00,CLR,,0.04,0.0,WeatherDisplay:10.37,2013-02-22 01:12:00,
2013-02-21 17:17:00,43.9,37.8,30.23,South,180,5.4,5.8,79,0.00,CLR,,0.04,0.0,WeatherDisplay:10.37,2013-02-22 01:17:00,
2013-02-21 17:22:00,43.9,37.8,30.23,SSW,202,2.9,5.8,79,0.00,CLR,,0.04,0.0,WeatherDisplay:10.37,2013-02-22 01:22:00,
2013-02-21 17:27:00,43.7,37.6,30.23,South,180,2.2,3.5,79,0.00,CLR,,0.04,0.0,WeatherDisplay:10.37,2013-02-22 01:27:00,
2013-02-21 17:32:00,43.7,38.3,30.20,SSW,202,2.4,4.6,81,0.00,CLR,,0.04,0.0,WeatherDisplay:10.37,2013-02-22 01:32:00,
2013-02-21 17:37:00,43.5,38.4,30.20,SSW,202,2.4,4.6,82,0.00,CLR,,0.04,0.0,WeatherDisplay:10.37,2013-02-22 01:37:00,
2013-02-21 17:42:00,43.5,39.0,30.20,SSW,202,2.4,4.6,84,0.00,CLR,,0.04,0.0,WeatherDisplay:10.37,2013-02-22 01:42:00,
2013-02-21 17:47:00,43.3,38.8,30.17,SSW,202,2.4,4.6,84,0.00,CLR,,0.04,0.0,WeatherDisplay:10.37,2013-02-22 01:47:00,
2013-02-21 17:52:00,43.3,39.1,30.17,SSW,202,2.4,4.6,85,0.00,CLR,,0.04,0.0,WeatherDisplay:10.37,2013-02-22 01:52:00,
2013-02-21 17:57:00,43.2,39.0,30.17,SSW,202,1.4,2.4,85,0.00,CLR,,0.04,0.0,WeatherDisplay:10.37,2013-02-22 01:57:00,
2013-02-21 18:02:00,43.2,39.0,30.17,SSW,202,1.4,2.4,85,0.00,CLR,,0.04,0.0,WeatherDisplay:10.37,2013-02-22 02:02:00,
2013-02-21 18:08:00,43.2,39.0,30.17,SSE,158,4.0,4.0,85,0.00,CLR,,0.04,0.0,WeatherDisplay:10.37,2013-02-22 02:08:00,
2013-02-21 18:13:00,43.2,39.0,30.17,SSE,158,4.0,4.0,85,0.00,CLR,,0.04,0.0,WeatherDisplay:10.37,2013-02-22 02:13:00,
2013-02-21 18:18:00,43.0,39.1,30.17,South,180,2.6,6.9,86,0.00,CLR,,0.04,0.0,WeatherDisplay:10.37,2013-02-22 02:18:00,
2013-02-21 18:23:00,43.0,39.1,30.17,South,180,2.6,6.9,86,0.00,CLR,,0.04,0.0,WeatherDisplay:10.37,2013-02-22 02:23:00,
2013-02-21 18:28:00,43.0,39.1,30.17,South,180,2.6,6.9,86,0.00,CLR,,0.04,0.0,WeatherDisplay:10.37,2013-02-22 02:28:00,
2013-02-21 18:33:00,43.0,39.1,30.17,SSW,202,3.3,4.6,86,0.00,CLR,,0.04,0.0,WeatherDisplay:10.37,2013-02-22 02:33:00,
2013-02-21 18:38:00,43.0,39.4,30.17,SSE,158,3.1,4.6,87,0.00,CLR,,0.04,0.0,WeatherDisplay:10.37,2013-02-22 02:38:00,
2013-02-21 18:43:00,43.0,39.1,30.20,SSW,202,4.0,6.2,86,0.00,CLR,,0.04,0.0,WeatherDisplay:10.37,2013-02-22 02:43:00,
2013-02-21 18:48:00,43.0,38.8,30.20,East,90,4.7,4.7,85,0.00,CLR,,0.04,0.0,WeatherDisplay:10.37,2013-02-22 02:48:00,
2013-02-21 18:53:00,43.0,38.5,30.20,SSW,202,5.4,6.0,84,0.00,CLR,,0.04,0.0,WeatherDisplay:10.37,2013-02-22 02:53:00,
2013-02-21 18:58:00,43.0,38.2,30.20,SSW,202,6.9,7.4,83,0.00,CLR,,0.04,0.0,WeatherDisplay:10.37,2013-02-22 02:58:00,
2013-02-21 19:03:00,43.2,38.0,30.20,SSW,202,6.4,6.4,82,0.00,CLR,,0.04,0.0,WeatherDisplay:10.37,2013-02-22 03:03:00,
2013-02-21 19:08:00,43.0,37.9,30.20,SSE,158,5.4,5.9,82,0.00,CLR,,0.04,0.0,WeatherDisplay:10.37,2013-02-22 03:08:00,
2013-02-21 19:13:00,43.0,38.2,30.20,SSW,202,3.1,4.6,83,0.00,CLR,,0.04,0.0,WeatherDisplay:10.37,2013-02-22 03:13:00,
2013-02-21 19:18:00,43.0,38.2,30.20,South,180,4.0,8.1,83,0.00,CLR,,0.04,0.0,WeatherDisplay:10.37,2013-02-22 03:18:00,
2013-02-21 19:23:00,43.0,38.2,30.20,South,180,4.0,8.1,83,0.00,CLR,,0.04,0.0,WeatherDisplay:10.37,2013-02-22 03:23:00,
2013-02-21 19:28:00,42.8,38.0,30.20,SSW,202,4.7,5.8,83,0.00,CLR,,0.04,0.0,WeatherDisplay:10.37,2013-02-22 03:28:00,
2013-02-21 19:33:00,42.8,38.0,30.20,SSE,158,4.3,6.0,83,0.00,CLR,,0.04,0.0,WeatherDisplay:10.37,2013-02-22 03:33:00,
2013-02-21 19:38:00,42.8,38.0,30.20,SSW,202,4.5,4.7,83,0.00,CLR,,0.04,0.0,WeatherDisplay:10.37,2013-02-22 03:38:00,
2013-02-21 19:43:00,42.6,37.8,30.20,ESE,112,5.6,8.1,83,0.00,CLR,,0.04,0.0,WeatherDisplay:10.37,2013-02-22 03:43:00,
2013-02-21 19:48:00,42.6,38.1,30.20,SSE,158,4.5,5.9,84,0.00,CLR,,0.04,0.0,WeatherDisplay:10.37,2013-02-22 03:48:00,
2013-02-21 19:53:00,42.6,38.1,30.20,SSE,158,4.3,4.3,84,0.00,CLR,,0.04,0.0,WeatherDisplay:10.37,2013-02-22 03:53:00,
2013-02-21 19:58:00,42.4,37.9,30.20,SSW,202,2.9,4.9,84,0.00,CLR,,0.04,0.0,WeatherDisplay:10.37,2013-02-22 03:58:00,
2013-02-21 20:03:00,42.4,37.9,30.20,SSW,202,3.8,3.8,84,0.00,CLR,,0.04,0.0,WeatherDisplay:10.37,2013-02-22 04:03:00,
2013-02-21 20:08:00,42.4,37.6,30.20,SSW,202,4.3,8.1,83,0.00,CLR,,0.04,0.0,WeatherDisplay:10.37,2013-02-22 04:08:00,
2013-02-21 20:13:00,42.4,37.6,30.20,SSE,158,5.4,8.1,83,0.00,CLR,,0.04,0.0,WeatherDisplay:10.37,2013-02-22 04:13:00,
2013-02-21 20:18:00,42.4,37.9,30.20,SSE,158,4.3,4.3,84,0.00,CLR,,0.04,0.0,WeatherDisplay:10.37,2013-02-22 04:18:00,
2013-02-21 20:23:00,42.4,37.9,30.20,SSW,202,3.3,4.7,84,0.00,CLR,,0.04,0.0,WeatherDisplay:10.37,2013-02-22 04:23:00,
2013-02-21 20:28:00,42.4,37.9,30.20,SSE,158,4.3,6.0,84,0.00,CLR,,0.04,0.0,WeatherDisplay:10.37,2013-02-22 04:28:00,
2013-02-21 20:33:00,42.6,38.1,30.17,SSE,158,4.0,6.2,84,0.00,CLR,,0.04,0.0,WeatherDisplay:10.37,2013-02-22 04:33:00,
2013-02-21 20:38:00,42.6,38.1,30.17,SSE,158,4.5,4.6,84,0.00,CLR,,0.04,0.0,WeatherDisplay:10.37,2013-02-22 04:38:00,
2013-02-21 20:43:00,42.6,38.1,30.23,SSE,158,5.4,5.4,84,0.00,CLR,,0.04,0.0,WeatherDisplay:10.37,2013-02-22 04:43:00,
2013-02-21 20:48:00,42.8,38.3,30.23,SSW,202,3.3,5.8,84,0.00,CLR,,0.04,0.0,WeatherDisplay:10.37,2013-02-22 04:48:00,
2013-02-21 20:53:00,42.8,38.3,30.23,SSE,158,3.6,3.6,84,0.00,CLR,,0.04,0.0,WeatherDisplay:10.37,2013-02-22 04:53:00,
2013-02-21 20:58:00,42.8,38.3,30.23,SSW,202,2.9,3.8,84,0.00,CLR,,0.04,0.0,WeatherDisplay:10.37,2013-02-22 04:58:00,
2013-02-21 21:00:00,42.8,38.3,30.20,SSW,202,4.0,6.0,84,0.00,CLR,,0.04,0.0,WeatherDisplay:10.37,2013-02-22 05:00:00,
2013-02-21 21:01:00,42.8,38.0,30.20,SSW,202,4.0,6.0,83,0.00,CLR,,0.04,0.0,WeatherDisplay:10.37,2013-02-22 05:01:00,
2013-02-21 21:04:00,42.8,38.0,30.20,South,180,4.0,5.8,83,0.00,CLR,,0.04,0.0,WeatherDisplay:10.37,2013-02-22 05:04:00,
2013-02-21 21:09:00,43.0,38.2,30.20,SSW,202,4.3,5.8,83,0.00,CLR,,0.04,0.0,WeatherDisplay:10.37,2013-02-22 05:09:00,
2013-02-21 21:11:00,43.0,38.2,30.20,SSW,202,4.3,4.3,83,0.00,CLR,,0.04,0.0,WeatherDisplay:10.37,2013-02-22 05:11:00,
2013-02-21 21:16:00,43.0,38.2,30.20,SSW,202,7.1,9.8,83,0.00,CLR,,0.04,0.0,WeatherDisplay:10.37,2013-02-22 05:16:00,
2013-02-21 21:21:00,43.0,38.2,30.20,SSE,158,3.3,8.1,83,0.00,CLR,,0.04,0.0,WeatherDisplay:10.37,2013-02-22 05:21:00,
2013-02-21 21:26:00,43.0,38.2,30.20,SSW,202,2.4,4.6,83,0.00,CLR,,0.04,0.0,WeatherDisplay:10.37,2013-02-22 05:26:00,
2013-02-21 21:31:00,43.0,37.9,30.20,SSE,158,3.6,3.6,82,0.00,CLR,,0.04,0.0,WeatherDisplay:10.37,2013-02-22 05:31:00,
2013-02-21 21:36:00,43.0,37.9,30.20,SSE,158,3.6,3.6,82,0.00,CLR,,0.04,0.0,WeatherDisplay:10.37,2013-02-22 05:36:00,
2013-02-21 21:41:00,43.0,38.2,30.20,SSE,158,3.6,3.6,83,0.00,CLR,,0.04,0.0,WeatherDisplay:10.37,2013-02-22 05:41:00,
2013-02-21 21:46:00,43.0,38.2,30.23,SSE,158,3.3,3.5,83,0.00,CLR,,0.04,0.0,WeatherDisplay:10.37,2013-02-22 05:46:00,
2013-02-21 21:51:00,43.0,38.5,30.23,SSE,158,3.6,3.8,84,0.00,CLR,,0.04,0.0,WeatherDisplay:10.37,2013-02-22 05:51:00,
2013-02-21 21:56:00,42.8,38.3,30.23,SSE,158,2.6,3.8,84,0.00,CLR,,0.04,0.0,WeatherDisplay:10.37,2013-02-22 05:56:00,
2013-02-21 22:01:00,42.8,38.6,30.23,SSW,202,2.4,3.6,85,0.00,CLR,,0.04,0.0,WeatherDisplay:10.37,2013-02-22 06:01:00,
2013-02-21 22:06:00,42.8,38.6,30.23,SSE,158,3.3,3.5,85,0.00,CLR,,0.04,0.0,WeatherDisplay:10.37,2013-02-22 06:06:00,
2013-02-21 22:11:00,42.8,38.9,30.23,SW,225,3.1,3.5,86,0.00,CLR,,0.04,0.0,WeatherDisplay:10.37,2013-02-22 06:11:00,
2013-02-21 22:16:00,42.6,39.3,30.26,SSE,158,3.6,5.8,88,0.00,CLR,,0.04,0.0,WeatherDisplay:10.37,2013-02-22 06:16:00,
2013-02-21 22:21:00,42.4,39.1,30.26,SE,135,4.3,4.3,88,0.00,CLR,,0.04,0.0,WeatherDisplay:10.37,2013-02-22 06:21:00,
2013-02-21 22:26:00,42.4,39.1,30.26,SSW,202,3.6,3.6,88,0.00,CLR,,0.04,0.0,WeatherDisplay:10.37,2013-02-22 06:26:00,
2013-02-21 22:31:00,42.4,39.4,30.23,SSE,158,3.3,3.3,89,0.00,CLR,,0.04,0.0,WeatherDisplay:10.37,2013-02-22 06:31:00,
2013-02-21 22:36:00,42.4,39.4,30.23,SSW,202,3.8,4.6,89,0.00,CLR,,0.04,0.0,WeatherDisplay:10.37,2013-02-22 06:36:00,
2013-02-21 22:41:00,42.4,39.4,30.23,South,180,3.6,3.6,89,0.00,CLR,,0.04,0.0,WeatherDisplay:10.37,2013-02-22 06:41:00,
2013-02-21 22:46:00,42.4,39.4,30.26,South,180,3.6,3.6,89,0.00,CLR,,0.04,0.0,WeatherDisplay:10.37,2013-02-22 06:46:00,
2013-02-21 22:51:00,42.4,39.4,30.26,South,180,3.6,3.6,89,0.00,CLR,,0.04,0.0,WeatherDisplay:10.37,2013-02-22 06:51:00,
2013-02-21 22:56:00,42.4,39.4,30.26,SSE,158,2.4,2.6,89,0.00,CLR,,0.04,0.0,WeatherDisplay:10.37,2013-02-22 06:56:00,
2013-02-21 23:01:00,42.4,39.1,30.23,South,180,2.4,3.5,88,0.00,CLR,,0.04,0.0,WeatherDisplay:10.37,2013-02-22 07:01:00,
2013-02-21 23:06:00,42.4,39.1,30.23,SE,135,4.7,4.7,88,0.00,CLR,,0.04,0.0,WeatherDisplay:10.37,2013-02-22 07:06:00,
2013-02-21 23:11:00,42.4,39.1,30.23,SE,135,4.7,4.7,88,0.00,CLR,,0.04,0.0,WeatherDisplay:10.37,2013-02-22 07:11:00,
2013-02-21 23:16:00,42.4,39.1,30.23,SSE,158,3.6,4.6,88,0.00,CLR,,0.04,0.0,WeatherDisplay:10.37,2013-02-22 07:16:00,
2013-02-21 23:21:00,42.4,39.1,30.23,SSE,158,3.6,4.6,88,0.00,CLR,,0.04,0.0,WeatherDisplay:10.37,2013-02-22 07:21:00,
2013-02-21 23:26:00,42.4,39.1,30.23,SSE,158,4.0,4.0,88,0.00,CLR,,0.04,0.0,WeatherDisplay:10.37,2013-02-22 07:26:00,
2013-02-21 23:31:00,42.3,39.0,30.20,SSE,158,4.0,4.0,88,0.00,CLR,,0.04,0.0,WeatherDisplay:10.37,2013-02-22 07:31:00,
2013-02-21 23:36:00,42.3,39.0,30.20,SSE,158,4.0,4.0,88,0.00,CLR,,0.04,0.0,WeatherDisplay:10.37,2013-02-22 07:36:00,
2013-02-21 23:41:00,42.3,39.0,30.20,SSE,158,4.0,4.0,88,0.00,CLR,,0.04,0.0,WeatherDisplay:10.37,2013-02-22 07:41:00,
2013-02-21 23:46:00,42.4,38.8,30.20,SSE,158,4.0,4.0,87,0.00,CLR,,0.04,0.0,WeatherDisplay:10.37,2013-02-22 07:46:00,
2013-02-21 23:51:00,42.4,38.8,30.20,SSE,158,4.0,4.0,87,0.00,CLR,,0.04,0.0,WeatherDisplay:10.37,2013-02-22 07:51:00,
2013-02-21 23:56:00,42.4,38.8,30.20,SSW,202,3.3,3.5,87,0.00,CLR,,0.04,0.0,WeatherDisplay:10.37,2013-02-22 07:56:00,